sensor_id;sensor_type;location;lat;lon;timestamp;temperature;humidity
68922;DHT22;55959;51.244;5.724;2023-04-06T00:02:03;8.50;50.00
68922;DHT22;55959;51.244;5.724;2023-04-06T00:04:29;8.50;50.00
68922;DHT22;55959;51.244;5.724;2023-04-06T00:06:55;8.40;50.00
68922;DHT22;55959;51.244;5.724;2023-04-06T00:09:21;8.40;50.10
68922;DHT22;55959;51.244;5.724;2023-04-06T00:11:47;8.40;50.10
68922;DHT22;55959;51.244;5.724;2023-04-06T00:14:13;8.30;50.10
68922;DHT22;55959;51.244;5.724;2023-04-06T00:16:39;8.30;50.10
68922;DHT22;55959;51.244;5.724;2023-04-06T00:19:05;8.30;50.20
68922;DHT22;55959;51.244;5.724;2023-04-06T00:21:31;8.20;50.30
68922;DHT22;55959;51.244;5.724;2023-04-06T00:23:57;8.20;50.20
68922;DHT22;55959;51.244;5.724;2023-04-06T00:26:23;8.20;50.30
68922;DHT22;55959;51.244;5.724;2023-04-06T00:28:50;8.10;50.20
68922;DHT22;55959;51.244;5.724;2023-04-06T00:31:17;8.10;50.20
68922;DHT22;55959;51.244;5.724;2023-04-06T00:33:43;8.10;50.30
68922;DHT22;55959;51.244;5.724;2023-04-06T00:36:09;8.10;50.40
68922;DHT22;55959;51.244;5.724;2023-04-06T00:38:34;8.00;50.50
68922;DHT22;55959;51.244;5.724;2023-04-06T00:41:00;8.00;50.60
68922;DHT22;55959;51.244;5.724;2023-04-06T00:43:26;8.00;50.70
68922;DHT22;55959;51.244;5.724;2023-04-06T00:45:52;8.00;51.30
68922;DHT22;55959;51.244;5.724;2023-04-06T00:48:19;7.90;50.80
68922;DHT22;55959;51.244;5.724;2023-04-06T00:50:46;7.90;50.90
68922;DHT22;55959;51.244;5.724;2023-04-06T00:53:12;7.90;51.60
68922;DHT22;55959;51.244;5.724;2023-04-06T00:55:38;7.80;51.00
68922;DHT22;55959;51.244;5.724;2023-04-06T00:58:04;7.80;51.10
68922;DHT22;55959;51.244;5.724;2023-04-06T01:00:32;7.80;51.20
68922;DHT22;55959;51.244;5.724;2023-04-06T01:02:58;7.80;51.10
68922;DHT22;55959;51.244;5.724;2023-04-06T01:05:23;7.80;51.20
68922;DHT22;55959;51.244;5.724;2023-04-06T01:07:49;7.70;51.30
68922;DHT22;55959;51.244;5.724;2023-04-06T01:10:28;7.70;51.50
68922;DHT22;55959;51.244;5.724;2023-04-06T01:12:55;7.70;51.80
68922;DHT22;55959;51.244;5.724;2023-04-06T01:15:21;7.70;51.70
68922;DHT22;55959;51.244;5.724;2023-04-06T01:17:47;7.60;51.70
68922;DHT22;55959;51.244;5.724;2023-04-06T01:20:12;7.60;51.70
68922;DHT22;55959;51.244;5.724;2023-04-06T01:22:38;7.60;51.70
68922;DHT22;55959;51.244;5.724;2023-04-06T01:25:05;7.60;51.80
68922;DHT22;55959;51.244;5.724;2023-04-06T01:27:31;7.60;51.90
68922;DHT22;55959;51.244;5.724;2023-04-06T01:29:58;7.50;51.80
68922;DHT22;55959;51.244;5.724;2023-04-06T01:32:24;7.50;51.90
68922;DHT22;55959;51.244;5.724;2023-04-06T01:34:50;7.50;51.90
68922;DHT22;55959;51.244;5.724;2023-04-06T01:37:16;7.50;52.10
68922;DHT22;55959;51.244;5.724;2023-04-06T01:39:43;7.40;52.10
68922;DHT22;55959;51.244;5.724;2023-04-06T01:42:09;7.40;52.30
68922;DHT22;55959;51.244;5.724;2023-04-06T01:44:35;7.40;52.40
68922;DHT22;55959;51.244;5.724;2023-04-06T01:47:02;7.40;52.60
68922;DHT22;55959;51.244;5.724;2023-04-06T01:49:28;7.30;52.50
68922;DHT22;55959;51.244;5.724;2023-04-06T01:51:53;7.30;52.70
68922;DHT22;55959;51.244;5.724;2023-04-06T01:54:20;7.30;52.80
68922;DHT22;55959;51.244;5.724;2023-04-06T01:56:45;7.20;52.70
68922;DHT22;55959;51.244;5.724;2023-04-06T01:59:11;7.20;52.80
68922;DHT22;55959;51.244;5.724;2023-04-06T02:01:37;7.20;52.90
68922;DHT22;55959;51.244;5.724;2023-04-06T02:04:02;7.20;53.00
68922;DHT22;55959;51.244;5.724;2023-04-06T02:06:28;7.20;53.10
68922;DHT22;55959;51.244;5.724;2023-04-06T02:08:55;7.10;53.20
68922;DHT22;55959;51.244;5.724;2023-04-06T02:11:20;7.10;53.40
68922;DHT22;55959;51.244;5.724;2023-04-06T02:13:46;7.10;53.60
68922;DHT22;55959;51.244;5.724;2023-04-06T02:16:12;7.10;53.80
68922;DHT22;55959;51.244;5.724;2023-04-06T02:18:38;7.10;53.90
68922;DHT22;55959;51.244;5.724;2023-04-06T02:21:03;7.10;53.80
68922;DHT22;55959;51.244;5.724;2023-04-06T02:23:29;7.10;54.00
68922;DHT22;55959;51.244;5.724;2023-04-06T02:25:55;7.10;54.20
68922;DHT22;55959;51.244;5.724;2023-04-06T02:28:21;7.00;54.30
68922;DHT22;55959;51.244;5.724;2023-04-06T02:30:47;7.10;54.60
68922;DHT22;55959;51.244;5.724;2023-04-06T02:33:12;7.10;54.70
68922;DHT22;55959;51.244;5.724;2023-04-06T02:35:38;7.00;54.80
68922;DHT22;55959;51.244;5.724;2023-04-06T02:38:04;7.00;55.00
68922;DHT22;55959;51.244;5.724;2023-04-06T02:40:31;7.00;55.10
68922;DHT22;55959;51.244;5.724;2023-04-06T02:42:56;7.00;55.20
68922;DHT22;55959;51.244;5.724;2023-04-06T02:45:22;7.00;55.30
68922;DHT22;55959;51.244;5.724;2023-04-06T02:47:48;7.00;55.40
68922;DHT22;55959;51.244;5.724;2023-04-06T02:50:14;7.00;55.50
68922;DHT22;55959;51.244;5.724;2023-04-06T02:52:41;7.10;55.60
68922;DHT22;55959;51.244;5.724;2023-04-06T02:55:07;7.00;55.60
68922;DHT22;55959;51.244;5.724;2023-04-06T02:57:33;7.10;55.70
68922;DHT22;55959;51.244;5.724;2023-04-06T02:59:58;7.10;55.70
68922;DHT22;55959;51.244;5.724;2023-04-06T03:02:24;7.10;55.70
68922;DHT22;55959;51.244;5.724;2023-04-06T03:04:50;7.10;55.70
68922;DHT22;55959;51.244;5.724;2023-04-06T03:07:16;7.10;55.80
68922;DHT22;55959;51.244;5.724;2023-04-06T03:09:42;7.10;55.90
68922;DHT22;55959;51.244;5.724;2023-04-06T03:12:07;7.10;56.00
68922;DHT22;55959;51.244;5.724;2023-04-06T03:14:34;7.10;56.00
68922;DHT22;55959;51.244;5.724;2023-04-06T03:17:00;7.10;56.10
68922;DHT22;55959;51.244;5.724;2023-04-06T03:19:26;7.10;56.10
68922;DHT22;55959;51.244;5.724;2023-04-06T03:21:52;7.10;56.10
68922;DHT22;55959;51.244;5.724;2023-04-06T03:24:18;7.10;56.10
68922;DHT22;55959;51.244;5.724;2023-04-06T03:26:43;7.10;56.20
68922;DHT22;55959;51.244;5.724;2023-04-06T03:29:09;7.10;56.30
68922;DHT22;55959;51.244;5.724;2023-04-06T03:31:35;7.10;56.40
68922;DHT22;55959;51.244;5.724;2023-04-06T03:34:02;7.10;56.40
68922;DHT22;55959;51.244;5.724;2023-04-06T03:36:27;7.10;56.50
68922;DHT22;55959;51.244;5.724;2023-04-06T03:38:53;7.10;56.60
68922;DHT22;55959;51.244;5.724;2023-04-06T03:41:19;7.20;56.60
68922;DHT22;55959;51.244;5.724;2023-04-06T03:43:46;7.20;56.70
68922;DHT22;55959;51.244;5.724;2023-04-06T03:46:11;7.20;56.70
68922;DHT22;55959;51.244;5.724;2023-04-06T03:48:37;7.20;56.70
68922;DHT22;55959;51.244;5.724;2023-04-06T03:51:03;7.20;56.80
68922;DHT22;55959;51.244;5.724;2023-04-06T03:53:30;7.20;56.80
68922;DHT22;55959;51.244;5.724;2023-04-06T03:55:56;7.20;56.80
68922;DHT22;55959;51.244;5.724;2023-04-06T03:58:22;7.20;56.80
68922;DHT22;55959;51.244;5.724;2023-04-06T04:00:47;7.20;56.90
68922;DHT22;55959;51.244;5.724;2023-04-06T04:03:13;7.20;56.90
68922;DHT22;55959;51.244;5.724;2023-04-06T04:05:39;7.20;56.90
68922;DHT22;55959;51.244;5.724;2023-04-06T04:08:05;7.20;56.90
68922;DHT22;55959;51.244;5.724;2023-04-06T04:10:30;7.20;57.00
68922;DHT22;55959;51.244;5.724;2023-04-06T04:12:56;7.20;57.00
68922;DHT22;55959;51.244;5.724;2023-04-06T04:15:22;7.20;57.00
68922;DHT22;55959;51.244;5.724;2023-04-06T04:17:48;7.20;57.00
68922;DHT22;55959;51.244;5.724;2023-04-06T04:20:15;7.20;57.00
68922;DHT22;55959;51.244;5.724;2023-04-06T04:22:41;7.20;57.00
68922;DHT22;55959;51.244;5.724;2023-04-06T04:25:08;7.20;57.00
68922;DHT22;55959;51.244;5.724;2023-04-06T04:27:34;7.20;57.00
68922;DHT22;55959;51.244;5.724;2023-04-06T04:30:00;7.20;57.00
68922;DHT22;55959;51.244;5.724;2023-04-06T04:32:26;7.20;57.00
68922;DHT22;55959;51.244;5.724;2023-04-06T04:34:53;7.20;57.00
68922;DHT22;55959;51.244;5.724;2023-04-06T04:37:19;7.20;57.00
68922;DHT22;55959;51.244;5.724;2023-04-06T04:39:45;7.20;57.00
68922;DHT22;55959;51.244;5.724;2023-04-06T04:42:11;7.20;57.00
68922;DHT22;55959;51.244;5.724;2023-04-06T04:44:37;7.30;57.10
68922;DHT22;55959;51.244;5.724;2023-04-06T04:47:03;7.20;57.00
68922;DHT22;55959;51.244;5.724;2023-04-06T04:49:29;7.30;57.10
68922;DHT22;55959;51.244;5.724;2023-04-06T04:51:54;7.30;57.10
68922;DHT22;55959;51.244;5.724;2023-04-06T04:54:20;7.30;57.20
68922;DHT22;55959;51.244;5.724;2023-04-06T04:56:46;7.30;57.10
68922;DHT22;55959;51.244;5.724;2023-04-06T04:59:12;7.30;57.30
68922;DHT22;55959;51.244;5.724;2023-04-06T05:01:37;7.30;57.30
68922;DHT22;55959;51.244;5.724;2023-04-06T05:04:03;7.30;57.40
68922;DHT22;55959;51.244;5.724;2023-04-06T05:06:29;7.30;57.60
68922;DHT22;55959;51.244;5.724;2023-04-06T05:08:55;7.30;57.60
68922;DHT22;55959;51.244;5.724;2023-04-06T05:11:21;7.30;57.70
68922;DHT22;55959;51.244;5.724;2023-04-06T05:13:47;7.20;57.70
68922;DHT22;55959;51.244;5.724;2023-04-06T05:16:12;7.30;57.80
68922;DHT22;55959;51.244;5.724;2023-04-06T05:18:38;7.20;57.80
68922;DHT22;55959;51.244;5.724;2023-04-06T05:21:04;7.30;57.90
68922;DHT22;55959;51.244;5.724;2023-04-06T05:23:31;7.30;57.90
68922;DHT22;55959;51.244;5.724;2023-04-06T05:25:56;7.30;58.00
68922;DHT22;55959;51.244;5.724;2023-04-06T05:28:22;7.30;58.00
68922;DHT22;55959;51.244;5.724;2023-04-06T05:30:48;7.30;58.10
68922;DHT22;55959;51.244;5.724;2023-04-06T05:33:14;7.30;58.20
68922;DHT22;55959;51.244;5.724;2023-04-06T05:35:40;7.30;58.20
68922;DHT22;55959;51.244;5.724;2023-04-06T05:38:08;7.30;58.20
68922;DHT22;55959;51.244;5.724;2023-04-06T05:40:36;7.30;58.30
68922;DHT22;55959;51.244;5.724;2023-04-06T05:43:03;7.30;58.40
68922;DHT22;55959;51.244;5.724;2023-04-06T05:45:29;7.30;58.40
68922;DHT22;55959;51.244;5.724;2023-04-06T05:47:55;7.40;58.50
68922;DHT22;55959;51.244;5.724;2023-04-06T05:50:21;7.40;58.50
68922;DHT22;55959;51.244;5.724;2023-04-06T05:52:47;7.40;58.50
68922;DHT22;55959;51.244;5.724;2023-04-06T05:55:13;7.40;58.50
68922;DHT22;55959;51.244;5.724;2023-04-06T05:57:40;7.40;58.60
68922;DHT22;55959;51.244;5.724;2023-04-06T06:00:07;7.40;58.70
68922;DHT22;55959;51.244;5.724;2023-04-06T06:02:35;7.50;58.80
68922;DHT22;55959;51.244;5.724;2023-04-06T06:05:01;7.50;58.80
68922;DHT22;55959;51.244;5.724;2023-04-06T06:07:27;7.50;58.90
68922;DHT22;55959;51.244;5.724;2023-04-06T06:09:52;7.50;58.90
68922;DHT22;55959;51.244;5.724;2023-04-06T06:12:22;7.50;58.90
68922;DHT22;55959;51.244;5.724;2023-04-06T06:14:47;7.50;59.00
68922;DHT22;55959;51.244;5.724;2023-04-06T06:17:13;7.50;59.10
68922;DHT22;55959;51.244;5.724;2023-04-06T06:19:40;7.60;59.10
68922;DHT22;55959;51.244;5.724;2023-04-06T06:22:06;7.60;59.00
68922;DHT22;55959;51.244;5.724;2023-04-06T06:24:32;7.60;59.10
68922;DHT22;55959;51.244;5.724;2023-04-06T06:26:58;7.60;59.10
68922;DHT22;55959;51.244;5.724;2023-04-06T06:29:24;7.70;59.20
68922;DHT22;55959;51.244;5.724;2023-04-06T06:31:49;7.70;59.10
68922;DHT22;55959;51.244;5.724;2023-04-06T06:34:15;7.70;59.10
68922;DHT22;55959;51.244;5.724;2023-04-06T06:36:41;7.80;59.10
68922;DHT22;55959;51.244;5.724;2023-04-06T06:39:07;7.80;59.10
68922;DHT22;55959;51.244;5.724;2023-04-06T06:41:32;7.80;59.20
68922;DHT22;55959;51.244;5.724;2023-04-06T06:43:58;7.80;59.10
68922;DHT22;55959;51.244;5.724;2023-04-06T06:46:25;7.90;59.10
68922;DHT22;55959;51.244;5.724;2023-04-06T06:48:50;7.90;59.10
68922;DHT22;55959;51.244;5.724;2023-04-06T06:51:16;8.00;59.20
68922;DHT22;55959;51.244;5.724;2023-04-06T06:53:42;8.00;59.20
68922;DHT22;55959;51.244;5.724;2023-04-06T06:56:07;8.10;59.30
68922;DHT22;55959;51.244;5.724;2023-04-06T06:58:33;8.10;59.30
68922;DHT22;55959;51.244;5.724;2023-04-06T07:00:59;8.20;59.30
68922;DHT22;55959;51.244;5.724;2023-04-06T07:03:25;8.20;59.30
68922;DHT22;55959;51.244;5.724;2023-04-06T07:05:51;8.20;59.10
68922;DHT22;55959;51.244;5.724;2023-04-06T07:08:24;8.30;59.00
68922;DHT22;55959;51.244;5.724;2023-04-06T07:10:51;8.30;58.90
68922;DHT22;55959;51.244;5.724;2023-04-06T07:13:23;8.40;58.90
68922;DHT22;55959;51.244;5.724;2023-04-06T07:15:50;8.40;58.90
68922;DHT22;55959;51.244;5.724;2023-04-06T07:18:16;8.50;58.90
68922;DHT22;55959;51.244;5.724;2023-04-06T07:20:43;8.50;58.90
68922;DHT22;55959;51.244;5.724;2023-04-06T07:23:09;8.50;58.80
68922;DHT22;55959;51.244;5.724;2023-04-06T07:25:35;8.60;58.80
68922;DHT22;55959;51.244;5.724;2023-04-06T07:28:02;8.60;58.80
68922;DHT22;55959;51.244;5.724;2023-04-06T07:30:28;8.60;58.70
68922;DHT22;55959;51.244;5.724;2023-04-06T07:32:54;8.60;58.80
68922;DHT22;55959;51.244;5.724;2023-04-06T07:35:25;8.70;58.80
68922;DHT22;55959;51.244;5.724;2023-04-06T07:37:55;8.70;58.80
68922;DHT22;55959;51.244;5.724;2023-04-06T07:40:21;8.70;58.90
68922;DHT22;55959;51.244;5.724;2023-04-06T07:42:47;8.70;59.00
68922;DHT22;55959;51.244;5.724;2023-04-06T07:45:13;8.80;59.10
68922;DHT22;55959;51.244;5.724;2023-04-06T07:47:38;8.70;59.00
68922;DHT22;55959;51.244;5.724;2023-04-06T07:50:05;8.80;59.10
68922;DHT22;55959;51.244;5.724;2023-04-06T07:52:31;8.80;59.10
68922;DHT22;55959;51.244;5.724;2023-04-06T07:54:59;8.90;59.20
68922;DHT22;55959;51.244;5.724;2023-04-06T07:57:25;8.90;59.30
68922;DHT22;55959;51.244;5.724;2023-04-06T07:59:51;8.90;59.40
68922;DHT22;55959;51.244;5.724;2023-04-06T08:02:17;9.00;59.50
68922;DHT22;55959;51.244;5.724;2023-04-06T08:04:43;9.00;59.50
68922;DHT22;55959;51.244;5.724;2023-04-06T08:07:09;9.10;59.60
68922;DHT22;55959;51.244;5.724;2023-04-06T08:09:35;9.10;59.40
68922;DHT22;55959;51.244;5.724;2023-04-06T08:12:00;9.20;59.30
68922;DHT22;55959;51.244;5.724;2023-04-06T08:14:26;9.30;59.40
68922;DHT22;55959;51.244;5.724;2023-04-06T08:16:52;9.30;59.40
68922;DHT22;55959;51.244;5.724;2023-04-06T08:19:18;9.40;59.40
68922;DHT22;55959;51.244;5.724;2023-04-06T08:21:44;9.50;59.50
68922;DHT22;55959;51.244;5.724;2023-04-06T08:24:11;9.50;59.40
68922;DHT22;55959;51.244;5.724;2023-04-06T08:26:37;9.60;59.50
68922;DHT22;55959;51.244;5.724;2023-04-06T08:29:03;9.70;59.50
68922;DHT22;55959;51.244;5.724;2023-04-06T08:31:29;9.80;59.40
68922;DHT22;55959;51.244;5.724;2023-04-06T08:33:56;9.80;59.30
68922;DHT22;55959;51.244;5.724;2023-04-06T08:36:22;9.90;59.30
68922;DHT22;55959;51.244;5.724;2023-04-06T08:38:48;10.00;59.00
68922;DHT22;55959;51.244;5.724;2023-04-06T08:41:15;10.10;58.90
68922;DHT22;55959;51.244;5.724;2023-04-06T08:43:58;10.20;58.90
68922;DHT22;55959;51.244;5.724;2023-04-06T08:46:25;10.20;58.90
68922;DHT22;55959;51.244;5.724;2023-04-06T08:49:01;10.30;58.80
68922;DHT22;55959;51.244;5.724;2023-04-06T08:51:29;10.40;58.60
68922;DHT22;55959;51.244;5.724;2023-04-06T08:53:59;10.50;58.60
68922;DHT22;55959;51.244;5.724;2023-04-06T08:56:26;10.60;58.30
68922;DHT22;55959;51.244;5.724;2023-04-06T08:58:54;10.60;58.10
68922;DHT22;55959;51.244;5.724;2023-04-06T09:01:22;10.70;58.00
68922;DHT22;55959;51.244;5.724;2023-04-06T09:03:49;10.80;57.80
68922;DHT22;55959;51.244;5.724;2023-04-06T09:06:16;10.90;57.80
68922;DHT22;55959;51.244;5.724;2023-04-06T09:08:42;11.00;57.50
68922;DHT22;55959;51.244;5.724;2023-04-06T09:11:08;11.10;57.20
68922;DHT22;55959;51.244;5.724;2023-04-06T09:13:52;11.10;57.10
68922;DHT22;55959;51.244;5.724;2023-04-06T09:16:20;11.20;57.10
68922;DHT22;55959;51.244;5.724;2023-04-06T09:18:47;11.30;56.90
68922;DHT22;55959;51.244;5.724;2023-04-06T09:21:17;11.30;56.80
68922;DHT22;55959;51.244;5.724;2023-04-06T09:23:43;11.40;56.80
68922;DHT22;55959;51.244;5.724;2023-04-06T09:26:11;11.50;56.60
68922;DHT22;55959;51.244;5.724;2023-04-06T09:28:50;11.60;56.10
68922;DHT22;55959;51.244;5.724;2023-04-06T09:31:22;11.60;55.60
68922;DHT22;55959;51.244;5.724;2023-04-06T09:33:50;11.70;55.20
68922;DHT22;55959;51.244;5.724;2023-04-06T09:36:16;11.70;55.30
68922;DHT22;55959;51.244;5.724;2023-04-06T09:38:59;11.80;55.30
68922;DHT22;55959;51.244;5.724;2023-04-06T09:41:28;11.90;55.20
68922;DHT22;55959;51.244;5.724;2023-04-06T09:44:12;11.90;55.10
68922;DHT22;55959;51.244;5.724;2023-04-06T09:46:40;11.90;54.70
68922;DHT22;55959;51.244;5.724;2023-04-06T09:49:08;12.00;54.50
68922;DHT22;55959;51.244;5.724;2023-04-06T09:51:45;12.00;54.70
68922;DHT22;55959;51.244;5.724;2023-04-06T09:54:21;12.00;55.10
68922;DHT22;55959;51.244;5.724;2023-04-06T10:02:33;12.20;55.30
68922;DHT22;55959;51.244;5.724;2023-04-06T10:05:12;12.20;55.10
68922;DHT22;55959;51.244;5.724;2023-04-06T10:07:44;12.30;55.00
68922;DHT22;55959;51.244;5.724;2023-04-06T10:10:11;12.40;55.10
68922;DHT22;55959;51.244;5.724;2023-04-06T10:12:38;12.40;55.10
68922;DHT22;55959;51.244;5.724;2023-04-06T10:15:05;12.40;54.90
68922;DHT22;55959;51.244;5.724;2023-04-06T10:17:31;12.40;54.80
68922;DHT22;55959;51.244;5.724;2023-04-06T10:20:21;12.50;54.90
68922;DHT22;55959;51.244;5.724;2023-04-06T10:25:29;12.50;54.80
68922;DHT22;55959;51.244;5.724;2023-04-06T10:28:09;12.50;54.90
68922;DHT22;55959;51.244;5.724;2023-04-06T10:30:42;12.50;55.00
68922;DHT22;55959;51.244;5.724;2023-04-06T10:33:15;12.60;55.00
68922;DHT22;55959;51.244;5.724;2023-04-06T10:35:42;12.60;55.00
68922;DHT22;55959;51.244;5.724;2023-04-06T10:38:08;12.60;55.10
68922;DHT22;55959;51.244;5.724;2023-04-06T10:40:38;12.60;55.10
68922;DHT22;55959;51.244;5.724;2023-04-06T10:43:10;12.60;55.00
68922;DHT22;55959;51.244;5.724;2023-04-06T10:45:43;12.60;55.20
68922;DHT22;55959;51.244;5.724;2023-04-06T10:48:18;12.60;55.40
68922;DHT22;55959;51.244;5.724;2023-04-06T10:50:47;12.60;55.60
68922;DHT22;55959;51.244;5.724;2023-04-06T10:53:27;12.70;55.80
68922;DHT22;55959;51.244;5.724;2023-04-06T10:55:56;12.70;55.80
68922;DHT22;55959;51.244;5.724;2023-04-06T10:58:28;12.70;55.60
68922;DHT22;55959;51.244;5.724;2023-04-06T11:00:55;12.80;55.50
68922;DHT22;55959;51.244;5.724;2023-04-06T11:03:21;12.80;55.50
68922;DHT22;55959;51.244;5.724;2023-04-06T11:05:48;12.80;55.60
68922;DHT22;55959;51.244;5.724;2023-04-06T11:08:37;12.80;55.70
68922;DHT22;55959;51.244;5.724;2023-04-06T11:13:57;12.90;56.30
68922;DHT22;55959;51.244;5.724;2023-04-06T11:16:26;12.90;56.70
68922;DHT22;55959;51.244;5.724;2023-04-06T11:18:58;12.90;56.90
68922;DHT22;55959;51.244;5.724;2023-04-06T11:24:21;12.90;57.70
68922;DHT22;55959;51.244;5.724;2023-04-06T11:31:51;12.80;57.90
68922;DHT22;55959;51.244;5.724;2023-04-06T11:34:23;12.70;58.00
68922;DHT22;55959;51.244;5.724;2023-04-06T11:36:57;12.70;58.30
68922;DHT22;55959;51.244;5.724;2023-04-06T11:39:25;12.70;58.70
68922;DHT22;55959;51.244;5.724;2023-04-06T11:41:54;12.70;59.00
68922;DHT22;55959;51.244;5.724;2023-04-06T11:44:49;12.70;59.40
68922;DHT22;55959;51.244;5.724;2023-04-06T11:47:16;12.70;59.60
68922;DHT22;55959;51.244;5.724;2023-04-06T11:49:43;12.60;59.70
68922;DHT22;55959;51.244;5.724;2023-04-06T11:52:23;12.50;60.00
68922;DHT22;55959;51.244;5.724;2023-04-06T11:54:51;12.50;60.30
68922;DHT22;55959;51.244;5.724;2023-04-06T11:57:18;12.40;60.40
68922;DHT22;55959;51.244;5.724;2023-04-06T11:59:45;12.40;61.10
68922;DHT22;55959;51.244;5.724;2023-04-06T12:02:11;12.40;61.50
68922;DHT22;55959;51.244;5.724;2023-04-06T12:04:37;12.40;61.90
68922;DHT22;55959;51.244;5.724;2023-04-06T12:07:03;12.30;61.90
68922;DHT22;55959;51.244;5.724;2023-04-06T12:09:30;12.30;62.60
68922;DHT22;55959;51.244;5.724;2023-04-06T12:11:56;12.30;62.90
68922;DHT22;55959;51.244;5.724;2023-04-06T12:14:22;12.20;62.90
68922;DHT22;55959;51.244;5.724;2023-04-06T12:16:47;12.20;63.10
68922;DHT22;55959;51.244;5.724;2023-04-06T12:19:13;12.20;63.50
68922;DHT22;55959;51.244;5.724;2023-04-06T12:21:39;12.20;63.70
68922;DHT22;55959;51.244;5.724;2023-04-06T12:24:06;12.20;63.90
68922;DHT22;55959;51.244;5.724;2023-04-06T12:26:32;12.20;64.10
68922;DHT22;55959;51.244;5.724;2023-04-06T12:28:59;12.20;64.10
68922;DHT22;55959;51.244;5.724;2023-04-06T12:31:33;12.20;64.10
68922;DHT22;55959;51.244;5.724;2023-04-06T12:34:02;12.30;64.40
68922;DHT22;55959;51.244;5.724;2023-04-06T12:36:28;12.20;64.30
68922;DHT22;55959;51.244;5.724;2023-04-06T12:38:55;12.30;64.40
68922;DHT22;55959;51.244;5.724;2023-04-06T12:41:21;12.20;64.50
68922;DHT22;55959;51.244;5.724;2023-04-06T12:43:48;12.20;64.50
68922;DHT22;55959;51.244;5.724;2023-04-06T12:46:14;12.20;64.70
68922;DHT22;55959;51.244;5.724;2023-04-06T12:48:40;12.10;64.80
68922;DHT22;55959;51.244;5.724;2023-04-06T12:51:06;12.10;65.30
68922;DHT22;55959;51.244;5.724;2023-04-06T12:53:33;12.20;65.70
68922;DHT22;55959;51.244;5.724;2023-04-06T12:56:00;12.20;66.50
68922;DHT22;55959;51.244;5.724;2023-04-06T12:58:27;12.10;66.30
68922;DHT22;55959;51.244;5.724;2023-04-06T13:00:54;12.10;66.90
68922;DHT22;55959;51.244;5.724;2023-04-06T13:03:22;12.10;67.00
68922;DHT22;55959;51.244;5.724;2023-04-06T13:05:49;12.10;66.90
68922;DHT22;55959;51.244;5.724;2023-04-06T13:08:17;12.10;67.20
68922;DHT22;55959;51.244;5.724;2023-04-06T13:10:48;12.10;67.40
68922;DHT22;55959;51.244;5.724;2023-04-06T13:13:15;12.10;67.60
68922;DHT22;55959;51.244;5.724;2023-04-06T13:15:41;12.10;67.70
68922;DHT22;55959;51.244;5.724;2023-04-06T13:18:07;12.10;68.10
68922;DHT22;55959;51.244;5.724;2023-04-06T13:20:33;12.10;68.30
68922;DHT22;55959;51.244;5.724;2023-04-06T13:22:59;12.10;68.50
68922;DHT22;55959;51.244;5.724;2023-04-06T13:25:25;12.10;68.70
68922;DHT22;55959;51.244;5.724;2023-04-06T13:27:51;12.10;68.90
68922;DHT22;55959;51.244;5.724;2023-04-06T13:30:17;12.10;68.80
68922;DHT22;55959;51.244;5.724;2023-04-06T13:32:43;12.10;68.70
68922;DHT22;55959;51.244;5.724;2023-04-06T13:35:09;12.10;68.60
68922;DHT22;55959;51.244;5.724;2023-04-06T13:51:54;12.00;68.00
68922;DHT22;55959;51.244;5.724;2023-04-06T13:54:20;12.90;67.30
68922;DHT22;55959;51.244;5.724;2023-04-06T13:56:46;12.90;67.00
68922;DHT22;55959;51.244;5.724;2023-04-06T13:59:12;12.80;67.00
68922;DHT22;55959;51.244;5.724;2023-04-06T14:01:37;12.80;67.10
68922;DHT22;55959;51.244;5.724;2023-04-06T14:04:03;12.70;67.30
68922;DHT22;55959;51.244;5.724;2023-04-06T14:06:29;12.70;67.50
68922;DHT22;55959;51.244;5.724;2023-04-06T14:08:55;12.60;67.80
68922;DHT22;55959;51.244;5.724;2023-04-06T14:11:22;12.50;68.00
68922;DHT22;55959;51.244;5.724;2023-04-06T14:13:47;12.50;68.20
68922;DHT22;55959;51.244;5.724;2023-04-06T14:16:13;12.50;68.50
68922;DHT22;55959;51.244;5.724;2023-04-06T14:18:39;12.40;68.50
68922;DHT22;55959;51.244;5.724;2023-04-06T14:21:05;12.40;68.60
68922;DHT22;55959;51.244;5.724;2023-04-06T14:23:31;12.30;68.70
68922;DHT22;55959;51.244;5.724;2023-04-06T14:26:05;12.30;68.90
68922;DHT22;55959;51.244;5.724;2023-04-06T14:28:33;12.20;69.10
68922;DHT22;55959;51.244;5.724;2023-04-06T14:31:01;12.20;69.10
68922;DHT22;55959;51.244;5.724;2023-04-06T14:33:29;12.20;69.10
68922;DHT22;55959;51.244;5.724;2023-04-06T14:35:55;12.20;69.10
68922;DHT22;55959;51.244;5.724;2023-04-06T14:38:21;12.20;69.10
68922;DHT22;55959;51.244;5.724;2023-04-06T14:40:47;12.20;69.10
68922;DHT22;55959;51.244;5.724;2023-04-06T14:43:13;12.10;69.00
68922;DHT22;55959;51.244;5.724;2023-04-06T14:45:40;12.10;69.10
68922;DHT22;55959;51.244;5.724;2023-04-06T14:48:06;12.10;69.20
68922;DHT22;55959;51.244;5.724;2023-04-06T14:50:32;12.10;69.20
68922;DHT22;55959;51.244;5.724;2023-04-06T14:52:59;12.10;69.50
68922;DHT22;55959;51.244;5.724;2023-04-06T14:55:26;12.00;69.60
68922;DHT22;55959;51.244;5.724;2023-04-06T14:57:51;12.00;69.80
68922;DHT22;55959;51.244;5.724;2023-04-06T15:00:17;12.00;70.00
68922;DHT22;55959;51.244;5.724;2023-04-06T15:02:44;12.00;70.00
68922;DHT22;55959;51.244;5.724;2023-04-06T15:05:09;12.00;70.10
68922;DHT22;55959;51.244;5.724;2023-04-06T15:07:36;12.00;70.30
68922;DHT22;55959;51.244;5.724;2023-04-06T15:10:04;12.00;70.30
68922;DHT22;55959;51.244;5.724;2023-04-06T15:12:30;12.00;70.50
68922;DHT22;55959;51.244;5.724;2023-04-06T15:14:57;12.00;70.70
68922;DHT22;55959;51.244;5.724;2023-04-06T15:17:23;12.00;70.90
68922;DHT22;55959;51.244;5.724;2023-04-06T15:19:50;12.00;71.10
68922;DHT22;55959;51.244;5.724;2023-04-06T15:22:18;11.90;72.00
68922;DHT22;55959;51.244;5.724;2023-04-06T15:24:44;11.90;71.50
68922;DHT22;55959;51.244;5.724;2023-04-06T15:27:10;11.90;71.50
68922;DHT22;55959;51.244;5.724;2023-04-06T15:29:35;11.90;71.60
68922;DHT22;55959;51.244;5.724;2023-04-06T15:32:01;11.90;71.70
68922;DHT22;55959;51.244;5.724;2023-04-06T15:34:30;11.90;72.20
68922;DHT22;55959;51.244;5.724;2023-04-06T15:37:00;11.80;72.20
68922;DHT22;55959;51.244;5.724;2023-04-06T15:39:27;11.90;72.30
68922;DHT22;55959;51.244;5.724;2023-04-06T15:41:53;11.80;72.40
68922;DHT22;55959;51.244;5.724;2023-04-06T15:44:21;11.80;72.50
68922;DHT22;55959;51.244;5.724;2023-04-06T15:46:47;11.80;72.60
68922;DHT22;55959;51.244;5.724;2023-04-06T15:49:12;11.80;72.60
68922;DHT22;55959;51.244;5.724;2023-04-06T15:51:39;11.80;72.90
68922;DHT22;55959;51.244;5.724;2023-04-06T15:54:05;11.80;73.10
68922;DHT22;55959;51.244;5.724;2023-04-06T15:56:34;11.80;73.40
68922;DHT22;55959;51.244;5.724;2023-04-06T15:58:59;11.80;73.30
68922;DHT22;55959;51.244;5.724;2023-04-06T16:01:25;11.80;73.70
68922;DHT22;55959;51.244;5.724;2023-04-06T16:03:51;11.80;74.10
68922;DHT22;55959;51.244;5.724;2023-04-06T16:06:17;11.80;74.40
68922;DHT22;55959;51.244;5.724;2023-04-06T16:08:42;11.70;74.50
68922;DHT22;55959;51.244;5.724;2023-04-06T16:11:09;11.70;74.70
68922;DHT22;55959;51.244;5.724;2023-04-06T16:13:35;11.70;74.80